AAL1843 KCLT-KBOS
Flight info
| Callsign | AAL1843 |
|---|---|
| Flight time | N/A |
| Altitude | 39000 |
| Route | BARMY5 RDU NOWAE Q87 GEARS BBOBO Q22 RBV Q419 JFK ROBUC3 |
| Aircraft | A20N/M-SDE2E3FGHIRWXY/LB1 |
Departure
| Time | N/A |
|---|---|
| Airport | Charlotte Douglas International Airport (KCLT) |
Arrival
| Time | 2026-05-08 00:38 |
|---|---|
| Airport | Boston Logan International Airport (KBOS) |
| Time | Latitude | Longitude | Altitude | Speed | Heading |
|---|---|---|---|---|---|
| 2026-05-08 00:01 | 40.31348 | -74.37709 | 38860 ft | 529 kts | 32° |
| 2026-05-08 00:01 | 40.34199 | -74.34648 | 38861 ft | 530 kts | 32° |
| 2026-05-08 00:01 | 40.39900 | -74.28528 | 38856 ft | 530 kts | 32° |
| 2026-05-08 00:02 | 40.45622 | -74.22373 | 38862 ft | 531 kts | 32° |
| 2026-05-08 00:02 | 40.51299 | -74.16126 | 38857 ft | 537 kts | 39° |
| 2026-05-08 00:03 | 40.53774 | -74.12394 | 38851 ft | 544 kts | 50° |
| 2026-05-08 00:03 | 40.55760 | -74.08134 | 38842 ft | 549 kts | 62° |
| 2026-05-08 00:03 | 40.57191 | -74.03465 | 38851 ft | 550 kts | 73° |
| 2026-05-08 00:03 | 40.58302 | -73.98647 | 38854 ft | 550 kts | 73° |
| 2026-05-08 00:04 | 40.60546 | -73.89016 | 38854 ft | 552 kts | 73° |
| 2026-05-08 00:04 | 40.63156 | -73.79587 | 38788 ft | 552 kts | 61° |
| 2026-05-08 00:05 | 40.65063 | -73.75206 | 38482 ft | 551 kts | 53° |
| 2026-05-08 00:05 | 40.67369 | -73.71180 | 37903 ft | 547 kts | 44° |
| 2026-05-08 00:05 | 40.69796 | -73.67322 | 37217 ft | 548 kts | 46° |
| 2026-05-08 00:05 | 40.72274 | -73.63504 | 36451 ft | 548 kts | 44° |
| 2026-05-08 00:06 | 40.74777 | -73.59710 | 35680 ft | 549 kts | 43° |
| 2026-05-08 00:06 | 40.77331 | -73.55954 | 34902 ft | 549 kts | 41° |
| 2026-05-08 00:06 | 40.79931 | -73.52263 | 34134 ft | 549 kts | 40° |
| 2026-05-08 00:06 | 40.82518 | -73.48670 | 33619 ft | 542 kts | 39° |
| 2026-05-08 00:07 | 40.85130 | -73.45075 | 33283 ft | 531 kts | 39° |
| 2026-05-08 00:07 | 40.87638 | -73.41572 | 32617 ft | 530 kts | 41° |
| 2026-05-08 00:07 | 40.90109 | -73.37936 | 31825 ft | 531 kts | 42° |
| 2026-05-08 00:07 | 40.92555 | -73.34276 | 31049 ft | 531 kts | 43° |
| 2026-05-08 00:08 | 40.95000 | -73.30613 | 30291 ft | 531 kts | 43° |
| 2026-05-08 00:08 | 40.97445 | -73.26963 | 29624 ft | 527 kts | 43° |
| 2026-05-08 00:08 | 40.99881 | -73.23337 | 28697 ft | 527 kts | 43° |
| 2026-05-08 00:08 | 41.02326 | -73.19706 | 27668 ft | 530 kts | 43° |
| 2026-05-08 00:09 | 41.04778 | -73.16064 | 26872 ft | 527 kts | 44° |
| 2026-05-08 00:09 | 41.07160 | -73.12407 | 26196 ft | 524 kts | 49° |
| 2026-05-08 00:09 | 41.09100 | -73.08320 | 25547 ft | 523 kts | 61° |
| 2026-05-08 00:09 | 41.10595 | -73.04014 | 24931 ft | 518 kts | 65° |
| 2026-05-08 00:10 | 41.12035 | -72.99659 | 24323 ft | 512 kts | 65° |
| 2026-05-08 00:10 | 41.13530 | -72.95398 | 23724 ft | 507 kts | 63° |
| 2026-05-08 00:10 | 41.15085 | -72.91230 | 23134 ft | 500 kts | 62° |
| 2026-05-08 00:10 | 41.16665 | -72.87154 | 22890 ft | 496 kts | 61° |
| 2026-05-08 00:11 | 41.18276 | -72.83067 | 22862 ft | 501 kts | 61° |
| 2026-05-08 00:11 | 41.19895 | -72.78979 | 22853 ft | 501 kts | 61° |
| 2026-05-08 00:11 | 41.21515 | -72.74887 | 22858 ft | 501 kts | 61° |
| 2026-05-08 00:11 | 41.23131 | -72.70801 | 22850 ft | 495 kts | 61° |
| 2026-05-08 00:12 | 41.24719 | -72.66774 | 22850 ft | 490 kts | 61° |
| 2026-05-08 00:12 | 41.26304 | -72.62748 | 22857 ft | 491 kts | 61° |
| 2026-05-08 00:12 | 41.27886 | -72.58725 | 22860 ft | 492 kts | 61° |
| 2026-05-08 00:12 | 41.29473 | -72.54682 | 22865 ft | 491 kts | 62° |
| 2026-05-08 00:13 | 41.31053 | -72.50652 | 22860 ft | 491 kts | 62° |
| 2026-05-08 00:13 | 41.32609 | -72.46677 | 22861 ft | 492 kts | 62° |
| 2026-05-08 00:13 | 41.34192 | -72.42630 | 22859 ft | 492 kts | 62° |
| 2026-05-08 00:13 | 41.35771 | -72.38584 | 22858 ft | 492 kts | 62° |
| 2026-05-08 00:14 | 41.37348 | -72.34540 | 22860 ft | 493 kts | 62° |
| 2026-05-08 00:14 | 41.38951 | -72.30421 | 22844 ft | 494 kts | 62° |
| 2026-05-08 00:14 | 41.40528 | -72.26367 | 22557 ft | 492 kts | 62° |
| 2026-05-08 00:14 | 41.42094 | -72.22333 | 22037 ft | 489 kts | 62° |
| 2026-05-08 00:15 | 41.43647 | -72.18327 | 21433 ft | 484 kts | 62° |
| 2026-05-08 00:15 | 41.45121 | -72.14312 | 20801 ft | 480 kts | 65° |
| 2026-05-08 00:15 | 41.46547 | -72.10393 | 20371 ft | 474 kts | 65° |
| 2026-05-08 00:15 | 41.47935 | -72.06386 | 20179 ft | 478 kts | 65° |
| 2026-05-08 00:16 | 41.49369 | -72.02364 | 20004 ft | 479 kts | 64° |
| 2026-05-08 00:16 | 41.50851 | -71.98393 | 19833 ft | 477 kts | 63° |
| 2026-05-08 00:16 | 41.52366 | -71.94462 | 19657 ft | 476 kts | 63° |
| 2026-05-08 00:16 | 41.53892 | -71.90559 | 19487 ft | 475 kts | 62° |
| 2026-05-08 00:17 | 41.55430 | -71.86647 | 19316 ft | 474 kts | 62° |
| 2026-05-08 00:17 | 41.56960 | -71.82754 | 19147 ft | 473 kts | 62° |
| 2026-05-08 00:17 | 41.58477 | -71.78891 | 18876 ft | 470 kts | 62° |
| 2026-05-08 00:17 | 41.59991 | -71.75026 | 18402 ft | 467 kts | 63° |
| 2026-05-08 00:18 | 41.61488 | -71.71199 | 17790 ft | 463 kts | 63° |
| 2026-05-08 00:18 | 41.62968 | -71.67406 | 17228 ft | 456 kts | 62° |
| 2026-05-08 00:18 | 41.64423 | -71.63669 | 16676 ft | 450 kts | 62° |
| 2026-05-08 00:18 | 41.65853 | -71.59991 | 16085 ft | 444 kts | 62° |
| 2026-05-08 00:19 | 41.67267 | -71.56351 | 15549 ft | 438 kts | 62° |
| 2026-05-08 00:19 | 41.68661 | -71.52759 | 15010 ft | 432 kts | 62° |
| 2026-05-08 00:19 | 41.70032 | -71.49220 | 14728 ft | 425 kts | 61° |
| 2026-05-08 00:19 | 41.71402 | -71.45685 | 14564 ft | 429 kts | 61° |
| 2026-05-08 00:20 | 41.72753 | -71.42199 | 14389 ft | 426 kts | 60° |
| 2026-05-08 00:20 | 41.74166 | -71.38783 | 14222 ft | 413 kts | 58° |
| 2026-05-08 00:20 | 41.75582 | -71.35518 | 14055 ft | 398 kts | 58° |
| 2026-05-08 00:20 | 41.76958 | -71.32364 | 13889 ft | 385 kts | 57° |
| 2026-05-08 00:21 | 41.78282 | -71.29309 | 13751 ft | 372 kts | 58° |
| 2026-05-08 00:21 | 41.79546 | -71.26368 | 13638 ft | 359 kts | 58° |
| 2026-05-08 00:21 | 41.80773 | -71.23500 | 13387 ft | 350 kts | 58° |
| 2026-05-08 00:21 | 41.81980 | -71.20670 | 13011 ft | 346 kts | 58° |
| 2026-05-08 00:22 | 41.83152 | -71.17919 | 12660 ft | 342 kts | 58° |
| 2026-05-08 00:22 | 41.84323 | -71.15162 | 12307 ft | 338 kts | 58° |
| 2026-05-08 00:22 | 41.85480 | -71.12437 | 11938 ft | 335 kts | 58° |
| 2026-05-08 00:22 | 41.86631 | -71.09746 | 11593 ft | 331 kts | 57° |
| 2026-05-08 00:23 | 41.87778 | -71.07095 | 11259 ft | 326 kts | 57° |
| 2026-05-08 00:23 | 41.88908 | -71.04489 | 11062 ft | 321 kts | 57° |
| 2026-05-08 00:23 | 41.90043 | -71.01873 | 11016 ft | 325 kts | 57° |
| 2026-05-08 00:23 | 41.91173 | -70.99260 | 11011 ft | 324 kts | 57° |
| 2026-05-08 00:24 | 41.92303 | -70.96641 | 11010 ft | 324 kts | 57° |
| 2026-05-08 00:24 | 41.93431 | -70.94022 | 10919 ft | 323 kts | 57° |
| 2026-05-08 00:24 | 41.94558 | -70.91403 | 10575 ft | 324 kts | 57° |
| 2026-05-08 00:24 | 41.95679 | -70.88796 | 10297 ft | 319 kts | 57° |
| 2026-05-08 00:25 | 41.96774 | -70.86241 | 10086 ft | 311 kts | 57° |
| 2026-05-08 00:25 | 41.97861 | -70.83706 | 9897 ft | 314 kts | 57° |
| 2026-05-08 00:25 | 41.98948 | -70.81173 | 9711 ft | 310 kts | 57° |
| 2026-05-08 00:25 | 42.00019 | -70.78672 | 9511 ft | 308 kts | 57° |
| 2026-05-08 00:26 | 42.01117 | -70.76264 | 9331 ft | 305 kts | 50° |
| 2026-05-08 00:26 | 42.02488 | -70.74115 | 9143 ft | 302 kts | 44° |
| 2026-05-08 00:26 | 42.03901 | -70.72028 | 8971 ft | 300 kts | 44° |
| 2026-05-08 00:26 | 42.05298 | -70.69945 | 8788 ft | 299 kts | 45° |
| 2026-05-08 00:27 | 42.06685 | -70.67868 | 8608 ft | 297 kts | 45° |
| 2026-05-08 00:27 | 42.08064 | -70.65800 | 8427 ft | 296 kts | 45° |
| 2026-05-08 00:27 | 42.09435 | -70.63741 | 8245 ft | 295 kts | 45° |
| 2026-05-08 00:27 | 42.10989 | -70.62002 | 8072 ft | 288 kts | 24° |
| 2026-05-08 00:28 | 42.12829 | -70.61169 | 7865 ft | 281 kts | 5° |
| 2026-05-08 00:28 | 42.14757 | -70.60860 | 7589 ft | 275 kts | 354° |
| 2026-05-08 00:28 | 42.16626 | -70.61231 | 7237 ft | 271 kts | 346° |
| 2026-05-08 00:28 | 42.18470 | -70.61713 | 6852 ft | 269 kts | 346° |
| 2026-05-08 00:29 | 42.20301 | -70.62209 | 6468 ft | 268 kts | 346° |
| 2026-05-08 00:29 | 42.22120 | -70.62717 | 6070 ft | 266 kts | 346° |
| 2026-05-08 00:29 | 42.23928 | -70.63234 | 5688 ft | 264 kts | 346° |
| 2026-05-08 00:29 | 42.25719 | -70.63742 | 5308 ft | 262 kts | 346° |
| 2026-05-08 00:30 | 42.27494 | -70.64242 | 4938 ft | 260 kts | 346° |
| 2026-05-08 00:30 | 42.29263 | -70.64736 | 4555 ft | 258 kts | 346° |
| 2026-05-08 00:30 | 42.31014 | -70.65221 | 4177 ft | 256 kts | 346° |
| 2026-05-08 00:30 | 42.32759 | -70.65704 | 3790 ft | 255 kts | 346° |
| 2026-05-08 00:31 | 42.34489 | -70.66180 | 3435 ft | 252 kts | 346° |
| 2026-05-08 00:31 | 42.36202 | -70.66651 | 3110 ft | 249 kts | 346° |
| 2026-05-08 00:31 | 42.37863 | -70.67104 | 3002 ft | 237 kts | 346° |
| 2026-05-08 00:31 | 42.39426 | -70.67527 | 2997 ft | 222 kts | 343° |
| 2026-05-08 00:32 | 42.40693 | -70.68456 | 3006 ft | 201 kts | 307° |
| 2026-05-08 00:32 | 42.41119 | -70.70259 | 2999 ft | 208 kts | 267° |
| 2026-05-08 00:32 | 42.40819 | -70.72167 | 3007 ft | 207 kts | 256° |
| 2026-05-08 00:32 | 42.40414 | -70.74038 | 3008 ft | 207 kts | 256° |
| 2026-05-08 00:33 | 42.40069 | -70.75840 | 3008 ft | 193 kts | 259° |
| 2026-05-08 00:33 | 42.39770 | -70.77525 | 3009 ft | 174 kts | 259° |
| 2026-05-08 00:33 | 42.39501 | -70.79053 | 2957 ft | 166 kts | 259° |
| 2026-05-08 00:33 | 42.39231 | -70.80588 | 2762 ft | 166 kts | 259° |
| 2026-05-08 00:34 | 42.38967 | -70.82084 | 2533 ft | 163 kts | 259° |
| 2026-05-08 00:34 | 42.38703 | -70.83577 | 2311 ft | 162 kts | 260° |
| 2026-05-08 00:34 | 42.38443 | -70.85053 | 2094 ft | 161 kts | 259° |
| 2026-05-08 00:34 | 42.38183 | -70.86528 | 1873 ft | 162 kts | 260° |
| 2026-05-08 00:35 | 42.37922 | -70.88008 | 1652 ft | 160 kts | 260° |
| 2026-05-08 00:35 | 42.37671 | -70.89422 | 1440 ft | 148 kts | 261° |
| 2026-05-08 00:35 | 42.37446 | -70.90692 | 1248 ft | 130 kts | 261° |
| 2026-05-08 00:35 | 42.37246 | -70.91820 | 1064 ft | 120 kts | 260° |
| 2026-05-08 00:36 | 42.37112 | -70.92551 | 966 ft | 121 kts | 259° |
| 2026-05-08 00:36 | 42.36908 | -70.93653 | 813 ft | 120 kts | 258° |
| 2026-05-08 00:36 | 42.36663 | -70.95084 | 623 ft | 114 kts | 259° |
| 2026-05-08 00:36 | 42.36475 | -70.96117 | 468 ft | 114 kts | 259° |
| 2026-05-08 00:37 | 42.36290 | -70.97202 | 293 ft | 120 kts | 259° |
| 2026-05-08 00:37 | 42.36168 | -70.97921 | 182 ft | 112 kts | 260° |
| 2026-05-08 00:37 | 42.35986 | -70.98947 | 33 ft | 114 kts | 260° |
| 2026-05-08 00:38 | 42.35755 | -71.00289 | 15 ft | 35 kts | 258° |
| 2026-05-08 00:38 | 42.35700 | -71.00589 | 13 ft | 32 kts | 255° |
| 2026-05-08 00:38 | 42.35651 | -71.00865 | 14 ft | 28 kts | 257° |
| 2026-05-08 00:38 | 42.35636 | -71.01092 | 15 ft | 16 kts | 288° |
| 2026-05-08 00:39 | 42.35694 | -71.01216 | 18 ft | 16 kts | 309° |
| 2026-05-08 00:39 | 42.35738 | -71.01304 | 19 ft | 10 kts | 296° |
| 2026-05-08 00:39 | 42.35747 | -71.01331 | 21 ft | 0 kts | 290° |
| 2026-05-08 00:40 | 42.35753 | -71.01354 | 23 ft | 4 kts | 290° |
| 2026-05-08 00:40 | 42.35767 | -71.01404 | 23 ft | 7 kts | 290° |
| 2026-05-08 00:40 | 42.35787 | -71.01480 | 27 ft | 10 kts | 289° |
| 2026-05-08 00:41 | 42.35813 | -71.01579 | 24 ft | 13 kts | 289° |
| 2026-05-08 00:41 | 42.35831 | -71.01693 | 24 ft | 13 kts | 282° |
| 2026-05-08 00:41 | 42.35850 | -71.01782 | 28 ft | 3 kts | 293° |
| 2026-05-08 00:41 | 42.35849 | -71.01788 | 28 ft | 0 kts | 268° |
| 2026-05-08 00:42 | 42.35851 | -71.01822 | 26 ft | 8 kts | 275° |
| 2026-05-08 00:42 | 42.35882 | -71.01917 | 23 ft | 14 kts | 301° |
| 2026-05-08 00:42 | 42.35935 | -71.02032 | 25 ft | 13 kts | 306° |
| 2026-05-08 00:42 | 42.35988 | -71.02026 | 27 ft | 8 kts | 31° |
| 2026-05-08 00:43 | 42.35993 | -71.02010 | 27 ft | 0 kts | 78° |
| 2026-05-08 00:43 | 42.35987 | -71.01965 | 25 ft | 9 kts | 108° |
| 2026-05-08 00:43 | 42.35946 | -71.01875 | 25 ft | 10 kts | 117° |
| 2026-05-08 00:43 | 42.35929 | -71.01807 | 25 ft | 6 kts | 90° |
| 2026-05-08 00:44 | 42.35923 | -71.01742 | 25 ft | 7 kts | 86° |
| 2026-05-08 00:44 | 42.35938 | -71.01729 | 28 ft | 3 kts | 356° |
| 2026-05-08 00:44 | 42.35980 | -71.01733 | 24 ft | 8 kts | 349° |
| 2026-05-08 00:44 | 42.35982 | -71.01734 | 24 ft | 0 kts | 351° |